CheckWX is a tool to help pilots better visualize weather data.  It is not intended as a substitute for an official pre-flight weather briefing.

10:08:14 UTC

KYKM TAF
Yakima Air Terminal / McAllister Field Airport
Yakima, Washington, USA
KYKM 190520Z 1906/2006 VRB03KT 6SM BR OVC018 FM191000 VRB03KT 1 1/2SM BR OVC007 FM191800 30004KT 4SM BR OVC015 FM200100 30005KT 5SM BR OVC016

Jan-19@
06:00 UTC

Jan-19 @ 06:00 UTC

Jan-19@
10:00 UTC

Jan-19 @ 10:00 UTC

KYKM 190520Z 1906/2006 VRB03KT 6SM BR OVC018

Expired

Wind
  • Variable at 3 KTS
Conditions
Mist
Cloud Levels
  • Overcast at 1,800' AGL

Jan-19@
10:00 UTC

Jan-19 @ 10:00 UTC

Jan-19@
18:00 UTC

Jan-19 @ 18:00 UTC

FM191000 VRB03KT 1 1/2SM BR OVC007

From

From Standard forecast or significant change

Wind
  • Variable at 3 KTS
Conditions
Mist
Cloud Levels
  • Overcast at 700' AGL

Jan-19@
18:00 UTC

Jan-19 @ 18:00 UTC

Jan-20@
01:00 UTC

Jan-20 @ 01:00 UTC

FM191800 30004KT 4SM BR OVC015

From

From Standard forecast or significant change

Wind
  • 300° at 4 KTS
Conditions
Mist
Cloud Levels
  • Overcast at 1,500' AGL

Jan-20@
01:00 UTC

Jan-20 @ 01:00 UTC

Jan-20@
06:00 UTC

Jan-20 @ 06:00 UTC

FM200100 30005KT 5SM BR OVC016

From

From Standard forecast or significant change

Wind
  • 300° at 5 KTS
Conditions
Mist
Cloud Levels
  • Overcast at 1,600' AGL